sensor_id;sensor_type;location;lat;lon;timestamp;temperature;humidity
36690;DHT22;22676;51.120;3.702;2024-03-23T00:51:17;22.60;49.20
36690;DHT22;22676;51.120;3.702;2024-03-23T00:56:09;22.70;48.50
36690;DHT22;22676;51.120;3.702;2024-03-23T00:58:34;22.70;48.10
36690;DHT22;22676;51.120;3.702;2024-03-23T01:01:00;22.70;48.10
36690;DHT22;22676;51.120;3.702;2024-03-23T01:03:25;22.70;48.20
36690;DHT22;22676;51.120;3.702;2024-03-23T01:05:51;22.70;48.60
36690;DHT22;22676;51.120;3.702;2024-03-23T01:08:18;22.60;48.60
36690;DHT22;22676;51.120;3.702;2024-03-23T01:10:53;22.60;48.80
36690;DHT22;22676;51.120;3.702;2024-03-23T01:13:18;22.60;48.90
36690;DHT22;22676;51.120;3.702;2024-03-23T01:15:50;22.60;49.10
36690;DHT22;22676;51.120;3.702;2024-03-23T01:18:17;22.60;49.10
36690;DHT22;22676;51.120;3.702;2024-03-23T01:20:43;22.60;49.20
36690;DHT22;22676;51.120;3.702;2024-03-23T01:23:08;22.50;49.20
36690;DHT22;22676;51.120;3.702;2024-03-23T01:25:34;22.50;49.30
36690;DHT22;22676;51.120;3.702;2024-03-23T01:27:59;22.50;49.30
36690;DHT22;22676;51.120;3.702;2024-03-23T01:30:25;22.50;49.30
36690;DHT22;22676;51.120;3.702;2024-03-23T01:32:50;22.50;49.40
36690;DHT22;22676;51.120;3.702;2024-03-23T01:35:16;22.50;49.40
36690;DHT22;22676;51.120;3.702;2024-03-23T01:37:41;22.40;49.40
36690;DHT22;22676;51.120;3.702;2024-03-23T01:40:07;22.50;49.50
36690;DHT22;22676;51.120;3.702;2024-03-23T01:42:32;22.50;49.50
36690;DHT22;22676;51.120;3.702;2024-03-23T01:44:58;22.50;49.40
36690;DHT22;22676;51.120;3.702;2024-03-23T01:47:24;22.50;49.40
36690;DHT22;22676;51.120;3.702;2024-03-23T01:49:49;22.40;49.30
36690;DHT22;22676;51.120;3.702;2024-03-23T01:52:14;22.40;49.40
36690;DHT22;22676;51.120;3.702;2024-03-23T01:54:40;22.40;49.00
36690;DHT22;22676;51.120;3.702;2024-03-23T01:57:06;22.50;48.70
36690;DHT22;22676;51.120;3.702;2024-03-23T01:59:32;22.40;48.10
36690;DHT22;22676;51.120;3.702;2024-03-23T02:01:57;22.40;48.40
36690;DHT22;22676;51.120;3.702;2024-03-23T02:04:23;22.40;48.70
36690;DHT22;22676;51.120;3.702;2024-03-23T02:06:48;22.30;48.90
36690;DHT22;22676;51.120;3.702;2024-03-23T02:09:14;22.30;49.10
36690;DHT22;22676;51.120;3.702;2024-03-23T02:11:40;22.30;49.20
36690;DHT22;22676;51.120;3.702;2024-03-23T02:14:06;22.30;49.40
36690;DHT22;22676;51.120;3.702;2024-03-23T02:16:33;22.30;49.40
36690;DHT22;22676;51.120;3.702;2024-03-23T02:18:58;22.20;49.40
36690;DHT22;22676;51.120;3.702;2024-03-23T02:21:24;22.20;49.40
36690;DHT22;22676;51.120;3.702;2024-03-23T02:23:49;22.20;49.50
36690;DHT22;22676;51.120;3.702;2024-03-23T02:26:15;22.20;49.50
36690;DHT22;22676;51.120;3.702;2024-03-23T02:28:42;22.20;49.50
36690;DHT22;22676;51.120;3.702;2024-03-23T02:31:07;22.20;49.50
36690;DHT22;22676;51.120;3.702;2024-03-23T02:33:33;22.20;49.50
36690;DHT22;22676;51.120;3.702;2024-03-23T02:35:59;22.20;49.50
36690;DHT22;22676;51.120;3.702;2024-03-23T02:38:25;22.20;49.50
36690;DHT22;22676;51.120;3.702;2024-03-23T02:40:50;22.20;49.60
36690;DHT22;22676;51.120;3.702;2024-03-23T02:43:16;22.10;49.50
36690;DHT22;22676;51.120;3.702;2024-03-23T02:45:41;22.20;49.60
36690;DHT22;22676;51.120;3.702;2024-03-23T02:48:07;22.10;49.60
36690;DHT22;22676;51.120;3.702;2024-03-23T02:50:32;22.20;49.60
36690;DHT22;22676;51.120;3.702;2024-03-23T02:52:58;22.20;49.60
36690;DHT22;22676;51.120;3.702;2024-03-23T02:55:24;22.20;49.00
36690;DHT22;22676;51.120;3.702;2024-03-23T02:57:49;22.20;48.30
36690;DHT22;22676;51.120;3.702;2024-03-23T03:00:15;22.30;48.30
36690;DHT22;22676;51.120;3.702;2024-03-23T03:02:41;22.30;48.20
36690;DHT22;22676;51.120;3.702;2024-03-23T03:05:06;22.20;48.60
36690;DHT22;22676;51.120;3.702;2024-03-23T03:07:34;22.20;48.80
36690;DHT22;22676;51.120;3.702;2024-03-23T03:09:59;22.20;49.00
36690;DHT22;22676;51.120;3.702;2024-03-23T03:12:25;22.20;49.00
36690;DHT22;22676;51.120;3.702;2024-03-23T03:14:50;22.20;48.80
36690;DHT22;22676;51.120;3.702;2024-03-23T03:17:16;22.20;48.80
36690;DHT22;22676;51.120;3.702;2024-03-23T03:19:41;22.20;48.90
36690;DHT22;22676;51.120;3.702;2024-03-23T03:22:07;22.20;48.90
36690;DHT22;22676;51.120;3.702;2024-03-23T03:24:32;22.20;48.80
36690;DHT22;22676;51.120;3.702;2024-03-23T03:26:58;22.20;48.80
36690;DHT22;22676;51.120;3.702;2024-03-23T03:29:23;22.20;48.80
36690;DHT22;22676;51.120;3.702;2024-03-23T03:31:49;22.20;48.80
36690;DHT22;22676;51.120;3.702;2024-03-23T03:34:15;22.20;48.80
36690;DHT22;22676;51.120;3.702;2024-03-23T03:36:41;22.20;48.80
36690;DHT22;22676;51.120;3.702;2024-03-23T03:39:06;22.20;48.80
36690;DHT22;22676;51.120;3.702;2024-03-23T03:41:32;22.20;48.80
36690;DHT22;22676;51.120;3.702;2024-03-23T03:43:58;22.20;48.80
36690;DHT22;22676;51.120;3.702;2024-03-23T03:46:30;22.20;48.80
36690;DHT22;22676;51.120;3.702;2024-03-23T03:48:55;22.20;48.80
36690;DHT22;22676;51.120;3.702;2024-03-23T03:51:20;22.20;48.90
36690;DHT22;22676;51.120;3.702;2024-03-23T03:53:46;22.20;48.90
36690;DHT22;22676;51.120;3.702;2024-03-23T03:56:12;22.20;48.10
36690;DHT22;22676;51.120;3.702;2024-03-23T03:58:37;22.20;47.70
36690;DHT22;22676;51.120;3.702;2024-03-23T04:01:03;22.20;47.80
36690;DHT22;22676;51.120;3.702;2024-03-23T04:03:28;22.20;47.80
36690;DHT22;22676;51.120;3.702;2024-03-23T04:05:54;22.20;48.40
36690;DHT22;22676;51.120;3.702;2024-03-23T04:08:20;22.10;48.50
36690;DHT22;22676;51.120;3.702;2024-03-23T04:10:45;22.10;48.50
36690;DHT22;22676;51.120;3.702;2024-03-23T04:13:11;22.10;48.70
36690;DHT22;22676;51.120;3.702;2024-03-23T04:15:37;22.10;48.80
36690;DHT22;22676;51.120;3.702;2024-03-23T04:18:02;22.00;48.80
36690;DHT22;22676;51.120;3.702;2024-03-23T04:20:28;22.00;48.80
36690;DHT22;22676;51.120;3.702;2024-03-23T04:22:53;22.00;48.90
36690;DHT22;22676;51.120;3.702;2024-03-23T04:25:19;22.00;48.90
36690;DHT22;22676;51.120;3.702;2024-03-23T04:27:45;22.10;48.80
36690;DHT22;22676;51.120;3.702;2024-03-23T04:30:10;22.10;48.50
36690;DHT22;22676;51.120;3.702;2024-03-23T04:32:39;22.20;48.40
36690;DHT22;22676;51.120;3.702;2024-03-23T04:35:05;22.20;48.30
36690;DHT22;22676;51.120;3.702;2024-03-23T04:37:37;22.20;48.20
36690;DHT22;22676;51.120;3.702;2024-03-23T04:40:03;22.20;48.20
36690;DHT22;22676;51.120;3.702;2024-03-23T04:42:29;22.20;48.10
36690;DHT22;22676;51.120;3.702;2024-03-23T04:44:55;22.20;48.10
36690;DHT22;22676;51.120;3.702;2024-03-23T04:47:20;22.20;48.00
36690;DHT22;22676;51.120;3.702;2024-03-23T04:49:46;22.20;48.10
36690;DHT22;22676;51.120;3.702;2024-03-23T04:52:11;22.10;48.10
36690;DHT22;22676;51.120;3.702;2024-03-23T04:54:37;22.10;47.80
36690;DHT22;22676;51.120;3.702;2024-03-23T04:57:03;22.10;47.20
36690;DHT22;22676;51.120;3.702;2024-03-23T04:59:28;22.00;47.00
36690;DHT22;22676;51.120;3.702;2024-03-23T05:01:54;22.00;47.30
36690;DHT22;22676;51.120;3.702;2024-03-23T05:04:19;21.90;47.40
36690;DHT22;22676;51.120;3.702;2024-03-23T05:06:45;21.90;47.80
36690;DHT22;22676;51.120;3.702;2024-03-23T05:09:10;21.80;48.00
36690;DHT22;22676;51.120;3.702;2024-03-23T05:11:40;21.70;48.20
36690;DHT22;22676;51.120;3.702;2024-03-23T05:14:07;21.70;48.30
36690;DHT22;22676;51.120;3.702;2024-03-23T05:16:32;21.60;48.50
36690;DHT22;22676;51.120;3.702;2024-03-23T05:18:58;21.60;48.60
36690;DHT22;22676;51.120;3.702;2024-03-23T05:21:23;21.60;48.70
36690;DHT22;22676;51.120;3.702;2024-03-23T05:23:49;21.50;48.90
36690;DHT22;22676;51.120;3.702;2024-03-23T05:26:14;21.50;49.00
36690;DHT22;22676;51.120;3.702;2024-03-23T05:28:40;21.50;49.10
36690;DHT22;22676;51.120;3.702;2024-03-23T05:31:05;21.50;49.10
36690;DHT22;22676;51.120;3.702;2024-03-23T05:33:31;21.50;49.20
36690;DHT22;22676;51.120;3.702;2024-03-23T05:35:57;21.40;49.30
36690;DHT22;22676;51.120;3.702;2024-03-23T05:38:22;21.40;49.30
36690;DHT22;22676;51.120;3.702;2024-03-23T05:40:57;21.30;49.50
36690;DHT22;22676;51.120;3.702;2024-03-23T05:43:23;21.30;49.40
36690;DHT22;22676;51.120;3.702;2024-03-23T05:45:59;21.30;49.40
36690;DHT22;22676;51.120;3.702;2024-03-23T05:48:25;21.30;49.50
36690;DHT22;22676;51.120;3.702;2024-03-23T05:50:51;21.30;49.50
36690;DHT22;22676;51.120;3.702;2024-03-23T05:53:17;21.30;49.50
36690;DHT22;22676;51.120;3.702;2024-03-23T05:55:43;21.30;49.50
36690;DHT22;22676;51.120;3.702;2024-03-23T05:58:09;21.30;48.80
36690;DHT22;22676;51.120;3.702;2024-03-23T06:00:34;21.30;49.10
36690;DHT22;22676;51.120;3.702;2024-03-23T06:03:00;21.30;48.90
36690;DHT22;22676;51.120;3.702;2024-03-23T06:05:25;21.40;49.00
36690;DHT22;22676;51.120;3.702;2024-03-23T06:07:51;21.40;48.80
36690;DHT22;22676;51.120;3.702;2024-03-23T06:10:17;21.40;48.70
36690;DHT22;22676;51.120;3.702;2024-03-23T06:12:42;21.50;48.70
36690;DHT22;22676;51.120;3.702;2024-03-23T06:15:08;21.50;48.50
36690;DHT22;22676;51.120;3.702;2024-03-23T06:17:38;21.60;48.50
36690;DHT22;22676;51.120;3.702;2024-03-23T06:20:04;21.60;48.40
36690;DHT22;22676;51.120;3.702;2024-03-23T06:22:31;21.70;48.20
36690;DHT22;22676;51.120;3.702;2024-03-23T06:24:57;21.70;48.10
36690;DHT22;22676;51.120;3.702;2024-03-23T06:27:22;21.80;48.00
36690;DHT22;22676;51.120;3.702;2024-03-23T06:29:48;21.80;47.90
36690;DHT22;22676;51.120;3.702;2024-03-23T06:32:13;21.90;47.80
36690;DHT22;22676;51.120;3.702;2024-03-23T06:34:41;22.00;47.80
36690;DHT22;22676;51.120;3.702;2024-03-23T06:37:06;22.00;47.60
36690;DHT22;22676;51.120;3.702;2024-03-23T06:39:32;22.10;47.50
36690;DHT22;22676;51.120;3.702;2024-03-23T06:41:58;22.20;47.40
36690;DHT22;22676;51.120;3.702;2024-03-23T06:44:23;22.20;47.20
36690;DHT22;22676;51.120;3.702;2024-03-23T06:46:49;22.30;47.20
36690;DHT22;22676;51.120;3.702;2024-03-23T06:49:15;22.40;47.00
36690;DHT22;22676;51.120;3.702;2024-03-23T06:51:41;22.50;46.80
36690;DHT22;22676;51.120;3.702;2024-03-23T06:54:06;22.60;46.50
36690;DHT22;22676;51.120;3.702;2024-03-23T06:56:32;22.60;46.20
36690;DHT22;22676;51.120;3.702;2024-03-23T06:58:57;22.70;45.90
36690;DHT22;22676;51.120;3.702;2024-03-23T07:01:23;22.70;46.00
36690;DHT22;22676;51.120;3.702;2024-03-23T07:03:48;22.80;46.00
36690;DHT22;22676;51.120;3.702;2024-03-23T07:06:14;22.80;45.90
36690;DHT22;22676;51.120;3.702;2024-03-23T07:08:39;22.90;45.90
36690;DHT22;22676;51.120;3.702;2024-03-23T07:11:05;22.90;45.80
36690;DHT22;22676;51.120;3.702;2024-03-23T07:13:30;23.00;45.80
36690;DHT22;22676;51.120;3.702;2024-03-23T07:15:56;23.10;45.80
36690;DHT22;22676;51.120;3.702;2024-03-23T07:18:22;23.10;46.20
36690;DHT22;22676;51.120;3.702;2024-03-23T07:20:54;23.10;45.70
36690;DHT22;22676;51.120;3.702;2024-03-23T07:23:21;23.20;45.60
36690;DHT22;22676;51.120;3.702;2024-03-23T07:25:59;23.20;45.60
36690;DHT22;22676;51.120;3.702;2024-03-23T07:28:25;23.30;45.50
36690;DHT22;22676;51.120;3.702;2024-03-23T07:31:01;23.40;45.40
36690;DHT22;22676;51.120;3.702;2024-03-23T07:33:27;23.50;45.10
36690;DHT22;22676;51.120;3.702;2024-03-23T07:35:52;23.60;45.00
36690;DHT22;22676;51.120;3.702;2024-03-23T07:38:18;23.60;44.80
36690;DHT22;22676;51.120;3.702;2024-03-23T07:40:43;23.60;44.80
36690;DHT22;22676;51.120;3.702;2024-03-23T07:43:09;23.60;44.90
36690;DHT22;22676;51.120;3.702;2024-03-23T07:45:34;23.60;45.10
36690;DHT22;22676;51.120;3.702;2024-03-23T07:48:00;23.50;45.30
36690;DHT22;22676;51.120;3.702;2024-03-23T07:50:25;23.40;45.60
36690;DHT22;22676;51.120;3.702;2024-03-23T07:52:51;23.30;45.90
36690;DHT22;22676;51.120;3.702;2024-03-23T07:55:16;23.30;45.30
36690;DHT22;22676;51.120;3.702;2024-03-23T07:57:42;23.20;45.20
36690;DHT22;22676;51.120;3.702;2024-03-23T08:00:08;23.20;46.10
36690;DHT22;22676;51.120;3.702;2024-03-23T08:02:33;23.10;46.30
36690;DHT22;22676;51.120;3.702;2024-03-23T08:04:59;23.10;46.50
36690;DHT22;22676;51.120;3.702;2024-03-23T08:07:24;23.00;46.60
36690;DHT22;22676;51.120;3.702;2024-03-23T08:09:50;23.00;46.80
36690;DHT22;22676;51.120;3.702;2024-03-23T08:12:16;23.00;46.90
36690;DHT22;22676;51.120;3.702;2024-03-23T08:14:41;23.00;47.10
36690;DHT22;22676;51.120;3.702;2024-03-23T08:17:07;23.00;47.10
36690;DHT22;22676;51.120;3.702;2024-03-23T08:19:32;22.90;47.20
36690;DHT22;22676;51.120;3.702;2024-03-23T08:21:58;22.90;47.40
36690;DHT22;22676;51.120;3.702;2024-03-23T08:24:23;22.90;47.50
36690;DHT22;22676;51.120;3.702;2024-03-23T08:26:49;22.90;47.60
36690;DHT22;22676;51.120;3.702;2024-03-23T08:29:14;22.90;47.60
36690;DHT22;22676;51.120;3.702;2024-03-23T08:31:40;22.80;47.50
36690;DHT22;22676;51.120;3.702;2024-03-23T08:34:05;22.80;47.40
36690;DHT22;22676;51.120;3.702;2024-03-23T08:36:31;22.90;47.50
36690;DHT22;22676;51.120;3.702;2024-03-23T08:38:56;22.80;47.70
36690;DHT22;22676;51.120;3.702;2024-03-23T08:41:22;22.80;47.60
36690;DHT22;22676;51.120;3.702;2024-03-23T08:43:47;22.70;47.80
36690;DHT22;22676;51.120;3.702;2024-03-23T08:46:13;22.70;47.90
36690;DHT22;22676;51.120;3.702;2024-03-23T08:48:43;22.70;47.90
36690;DHT22;22676;51.120;3.702;2024-03-23T08:51:09;22.60;47.50
36690;DHT22;22676;51.120;3.702;2024-03-23T08:53:35;22.50;47.70
36690;DHT22;22676;51.120;3.702;2024-03-23T08:56:00;22.50;47.40
36690;DHT22;22676;51.120;3.702;2024-03-23T08:58:28;22.40;47.40
36690;DHT22;22676;51.120;3.702;2024-03-23T09:00:54;22.40;47.30
36690;DHT22;22676;51.120;3.702;2024-03-23T09:03:24;22.40;47.50
36690;DHT22;22676;51.120;3.702;2024-03-23T09:05:53;22.40;47.60
36690;DHT22;22676;51.120;3.702;2024-03-23T09:08:20;22.40;47.50
36690;DHT22;22676;51.120;3.702;2024-03-23T09:10:46;22.30;47.70
36690;DHT22;22676;51.120;3.702;2024-03-23T09:13:12;22.30;47.80
36690;DHT22;22676;51.120;3.702;2024-03-23T09:15:45;22.30;47.70
36690;DHT22;22676;51.120;3.702;2024-03-23T09:18:11;22.30;47.60
36690;DHT22;22676;51.120;3.702;2024-03-23T09:20:36;22.30;47.40
36690;DHT22;22676;51.120;3.702;2024-03-23T09:23:02;22.30;47.50
36690;DHT22;22676;51.120;3.702;2024-03-23T09:25:27;22.30;47.50
36690;DHT22;22676;51.120;3.702;2024-03-23T09:27:53;22.20;47.70
36690;DHT22;22676;51.120;3.702;2024-03-23T09:30:18;22.20;47.50
36690;DHT22;22676;51.120;3.702;2024-03-23T09:32:45;22.20;47.40
36690;DHT22;22676;51.120;3.702;2024-03-23T09:35:10;22.20;47.80
36690;DHT22;22676;51.120;3.702;2024-03-23T09:37:36;22.20;47.80
36690;DHT22;22676;51.120;3.702;2024-03-23T09:40:02;22.20;47.70
36690;DHT22;22676;51.120;3.702;2024-03-23T09:42:28;22.20;48.00
36690;DHT22;22676;51.120;3.702;2024-03-23T09:44:54;22.20;47.90
36690;DHT22;22676;51.120;3.702;2024-03-23T09:47:21;22.20;48.00
36690;DHT22;22676;51.120;3.702;2024-03-23T09:49:47;22.20;48.20
36690;DHT22;22676;51.120;3.702;2024-03-23T09:52:12;22.20;49.20
36690;DHT22;22676;51.120;3.702;2024-03-23T09:54:38;22.20;48.60
36690;DHT22;22676;51.120;3.702;2024-03-23T09:57:04;22.20;48.40
36690;DHT22;22676;51.120;3.702;2024-03-23T09:59:31;22.10;48.70
36690;DHT22;22676;51.120;3.702;2024-03-23T10:01:58;22.10;49.10
36690;DHT22;22676;51.120;3.702;2024-03-23T10:04:39;22.00;48.90
36690;DHT22;22676;51.120;3.702;2024-03-23T10:07:15;22.00;49.60
36690;DHT22;22676;51.120;3.702;2024-03-23T10:09:43;22.00;49.70
36690;DHT22;22676;51.120;3.702;2024-03-23T10:12:10;22.00;50.40
36690;DHT22;22676;51.120;3.702;2024-03-23T10:14:36;22.10;50.70
36690;DHT22;22676;51.120;3.702;2024-03-23T10:17:12;22.10;50.60
36690;DHT22;22676;51.120;3.702;2024-03-23T10:19:43;22.10;50.90
36690;DHT22;22676;51.120;3.702;2024-03-23T10:22:09;22.10;51.10
36690;DHT22;22676;51.120;3.702;2024-03-23T10:24:35;22.00;51.20
36690;DHT22;22676;51.120;3.702;2024-03-23T10:27:00;22.00;50.90
36690;DHT22;22676;51.120;3.702;2024-03-23T10:29:26;22.00;50.80
36690;DHT22;22676;51.120;3.702;2024-03-23T10:31:53;22.00;51.70
36690;DHT22;22676;51.120;3.702;2024-03-23T10:34:26;22.00;52.80
36690;DHT22;22676;51.120;3.702;2024-03-23T10:36:53;22.00;53.80
36690;DHT22;22676;51.120;3.702;2024-03-23T10:39:19;22.10;53.20
36690;DHT22;22676;51.120;3.702;2024-03-23T10:41:48;22.20;52.80
36690;DHT22;22676;51.120;3.702;2024-03-23T10:44:14;22.20;52.70
36690;DHT22;22676;51.120;3.702;2024-03-23T10:46:41;22.30;52.20
36690;DHT22;22676;51.120;3.702;2024-03-23T10:49:07;22.20;50.50
36690;DHT22;22676;51.120;3.702;2024-03-23T10:51:32;22.10;49.70
36690;DHT22;22676;51.120;3.702;2024-03-23T10:53:58;22.10;51.90
36690;DHT22;22676;51.120;3.702;2024-03-23T10:56:25;22.10;52.20
36690;DHT22;22676;51.120;3.702;2024-03-23T10:58:51;22.00;52.00
36690;DHT22;22676;51.120;3.702;2024-03-23T11:01:18;22.00;51.50
36690;DHT22;22676;51.120;3.702;2024-03-23T11:03:46;22.00;50.80
36690;DHT22;22676;51.120;3.702;2024-03-23T11:06:33;21.90;51.40
36690;DHT22;22676;51.120;3.702;2024-03-23T11:08:58;21.90;51.50
36690;DHT22;22676;51.120;3.702;2024-03-23T11:11:24;21.90;51.10
36690;DHT22;22676;51.120;3.702;2024-03-23T11:13:50;21.90;51.80
36690;DHT22;22676;51.120;3.702;2024-03-23T11:16:17;21.80;51.20
36690;DHT22;22676;51.120;3.702;2024-03-23T11:18:46;21.90;49.80
36690;DHT22;22676;51.120;3.702;2024-03-23T11:21:51;21.90;50.70
36690;DHT22;22676;51.120;3.702;2024-03-23T11:24:31;21.90;49.10
36690;DHT22;22676;51.120;3.702;2024-03-23T11:26:49;21.80;50.60
36690;DHT22;22676;51.120;3.702;2024-03-23T11:29:15;21.90;51.40
36690;DHT22;22676;51.120;3.702;2024-03-23T11:34:13;21.90;51.00
36690;DHT22;22676;51.120;3.702;2024-03-23T11:36:40;22.00;50.70
36690;DHT22;22676;51.120;3.702;2024-03-23T11:39:15;22.00;50.80
36690;DHT22;22676;51.120;3.702;2024-03-23T11:42:00;22.10;50.70
36690;DHT22;22676;51.120;3.702;2024-03-23T11:44:26;22.20;50.40
36690;DHT22;22676;51.120;3.702;2024-03-23T11:46:52;22.20;49.90
36690;DHT22;22676;51.120;3.702;2024-03-23T11:51:47;22.30;49.50
36690;DHT22;22676;51.120;3.702;2024-03-23T11:54:13;22.30;49.10
36690;DHT22;22676;51.120;3.702;2024-03-23T11:56:38;22.40;49.10
36690;DHT22;22676;51.120;3.702;2024-03-23T11:59:04;22.40;49.40
36690;DHT22;22676;51.120;3.702;2024-03-23T12:01:29;22.50;48.60
36690;DHT22;22676;51.120;3.702;2024-03-23T12:03:56;22.60;47.90
36690;DHT22;22676;51.120;3.702;2024-03-23T12:06:21;22.70;47.70
36690;DHT22;22676;51.120;3.702;2024-03-23T12:08:47;22.80;47.30
36690;DHT22;22676;51.120;3.702;2024-03-23T12:11:16;22.90;47.20
36690;DHT22;22676;51.120;3.702;2024-03-23T12:13:45;23.00;47.20
36690;DHT22;22676;51.120;3.702;2024-03-23T12:18:40;23.20;46.60
36690;DHT22;22676;51.120;3.702;2024-03-23T12:21:06;23.30;46.30
36690;DHT22;22676;51.120;3.702;2024-03-23T12:23:32;23.30;46.20
36690;DHT22;22676;51.120;3.702;2024-03-23T12:25:58;23.40;46.10
36690;DHT22;22676;51.120;3.702;2024-03-23T12:28:23;23.40;45.60
36690;DHT22;22676;51.120;3.702;2024-03-23T12:30:49;23.40;46.20
36690;DHT22;22676;51.120;3.702;2024-03-23T12:33:15;23.40;45.40
36690;DHT22;22676;51.120;3.702;2024-03-23T12:35:40;23.40;45.30
36690;DHT22;22676;51.120;3.702;2024-03-23T12:38:06;23.40;44.90
36690;DHT22;22676;51.120;3.702;2024-03-23T12:40:31;23.50;45.00
36690;DHT22;22676;51.120;3.702;2024-03-23T12:42:56;23.50;44.90
36690;DHT22;22676;51.120;3.702;2024-03-23T12:45:22;23.50;44.90
36690;DHT22;22676;51.120;3.702;2024-03-23T12:47:48;23.60;45.10
36690;DHT22;22676;51.120;3.702;2024-03-23T12:50:13;23.60;45.80
36690;DHT22;22676;51.120;3.702;2024-03-23T12:52:39;23.60;45.10
36690;DHT22;22676;51.120;3.702;2024-03-23T12:55:05;23.60;44.80
36690;DHT22;22676;51.120;3.702;2024-03-23T12:57:31;23.60;44.80
36690;DHT22;22676;51.120;3.702;2024-03-23T12:59:57;23.60;44.60
36690;DHT22;22676;51.120;3.702;2024-03-23T13:02:22;23.60;44.50
36690;DHT22;22676;51.120;3.702;2024-03-23T13:04:53;23.60;44.50
36690;DHT22;22676;51.120;3.702;2024-03-23T13:07:20;23.60;44.50
36690;DHT22;22676;51.120;3.702;2024-03-23T13:09:46;23.60;44.40
36690;DHT22;22676;51.120;3.702;2024-03-23T13:12:11;23.70;44.40
36690;DHT22;22676;51.120;3.702;2024-03-23T13:14:37;23.70;44.30
36690;DHT22;22676;51.120;3.702;2024-03-23T13:17:03;23.70;44.30
36690;DHT22;22676;51.120;3.702;2024-03-23T13:19:29;23.80;44.40
36690;DHT22;22676;51.120;3.702;2024-03-23T13:21:59;23.80;44.30
36690;DHT22;22676;51.120;3.702;2024-03-23T13:24:25;23.90;44.70
36690;DHT22;22676;51.120;3.702;2024-03-23T13:26:51;23.90;44.90
36690;DHT22;22676;51.120;3.702;2024-03-23T13:29:18;23.90;45.70
36690;DHT22;22676;51.120;3.702;2024-03-23T13:31:44;23.80;45.60
36690;DHT22;22676;51.120;3.702;2024-03-23T13:34:09;23.80;45.70
36690;DHT22;22676;51.120;3.702;2024-03-23T13:36:35;23.70;45.40
36690;DHT22;22676;51.120;3.702;2024-03-23T13:39:01;23.70;45.60
36690;DHT22;22676;51.120;3.702;2024-03-23T13:41:30;23.70;45.80
36690;DHT22;22676;51.120;3.702;2024-03-23T13:43:56;23.60;45.90
36690;DHT22;22676;51.120;3.702;2024-03-23T13:46:21;23.60;45.90
36690;DHT22;22676;51.120;3.702;2024-03-23T13:48:47;23.70;47.00
36690;DHT22;22676;51.120;3.702;2024-03-23T13:51:12;23.60;46.80
36690;DHT22;22676;51.120;3.702;2024-03-23T13:53:38;23.70;47.60
36690;DHT22;22676;51.120;3.702;2024-03-23T13:56:04;23.70;47.20
36690;DHT22;22676;51.120;3.702;2024-03-23T13:58:30;23.70;47.60
36690;DHT22;22676;51.120;3.702;2024-03-23T14:00:58;23.70;49.00
36690;DHT22;22676;51.120;3.702;2024-03-23T14:03:23;23.70;50.50
36690;DHT22;22676;51.120;3.702;2024-03-23T14:05:49;23.60;49.70
36690;DHT22;22676;51.120;3.702;2024-03-23T14:08:15;23.60;48.60
36690;DHT22;22676;51.120;3.702;2024-03-23T14:10:40;23.60;49.20
36690;DHT22;22676;51.120;3.702;2024-03-23T14:13:06;23.60;49.10
36690;DHT22;22676;51.120;3.702;2024-03-23T14:15:32;23.60;50.10
36690;DHT22;22676;51.120;3.702;2024-03-23T14:17:57;23.60;50.70
36690;DHT22;22676;51.120;3.702;2024-03-23T14:20:23;23.60;51.90
36690;DHT22;22676;51.120;3.702;2024-03-23T14:22:49;23.70;49.70
36690;DHT22;22676;51.120;3.702;2024-03-23T14:25:15;23.60;51.20
36690;DHT22;22676;51.120;3.702;2024-03-23T14:27:40;23.60;48.50
36690;DHT22;22676;51.120;3.702;2024-03-23T14:30:06;23.60;49.30
36690;DHT22;22676;51.120;3.702;2024-03-23T14:32:31;23.60;50.20
36690;DHT22;22676;51.120;3.702;2024-03-23T14:35:05;23.70;50.10
36690;DHT22;22676;51.120;3.702;2024-03-23T14:37:38;23.60;49.20
36690;DHT22;22676;51.120;3.702;2024-03-23T14:40:04;23.50;51.50
36690;DHT22;22676;51.120;3.702;2024-03-23T14:42:30;23.40;50.80
36690;DHT22;22676;51.120;3.702;2024-03-23T14:44:56;23.30;51.00
36690;DHT22;22676;51.120;3.702;2024-03-23T14:47:22;23.30;50.60
36690;DHT22;22676;51.120;3.702;2024-03-23T14:49:47;23.20;51.10
36690;DHT22;22676;51.120;3.702;2024-03-23T14:52:18;23.20;51.10
36690;DHT22;22676;51.120;3.702;2024-03-23T14:54:45;23.10;49.80
36690;DHT22;22676;51.120;3.702;2024-03-23T14:57:10;23.00;50.30
36690;DHT22;22676;51.120;3.702;2024-03-23T14:59:36;23.00;51.80
36690;DHT22;22676;51.120;3.702;2024-03-23T15:02:09;22.90;52.70
36690;DHT22;22676;51.120;3.702;2024-03-23T15:04:34;23.00;52.90
36690;DHT22;22676;51.120;3.702;2024-03-23T15:07:00;22.90;53.00
36690;DHT22;22676;51.120;3.702;2024-03-23T15:09:26;22.90;53.00
36690;DHT22;22676;51.120;3.702;2024-03-23T15:11:51;22.90;53.40
36690;DHT22;22676;51.120;3.702;2024-03-23T15:14:17;22.90;53.40
36690;DHT22;22676;51.120;3.702;2024-03-23T15:16:42;22.90;53.70
36690;DHT22;22676;51.120;3.702;2024-03-23T15:19:08;22.80;53.80
36690;DHT22;22676;51.120;3.702;2024-03-23T15:21:33;22.80;52.80
36690;DHT22;22676;51.120;3.702;2024-03-23T15:23:59;22.80;53.40
36690;DHT22;22676;51.120;3.702;2024-03-23T15:26:24;22.80;53.90
36690;DHT22;22676;51.120;3.702;2024-03-23T15:28:50;22.70;54.10
36690;DHT22;22676;51.120;3.702;2024-03-23T15:31:21;22.70;53.60
36690;DHT22;22676;51.120;3.702;2024-03-23T15:33:47;22.60;54.40
36690;DHT22;22676;51.120;3.702;2024-03-23T15:36:13;22.60;54.10
36690;DHT22;22676;51.120;3.702;2024-03-23T15:38:38;22.60;53.60
36690;DHT22;22676;51.120;3.702;2024-03-23T15:41:04;22.50;54.60
36690;DHT22;22676;51.120;3.702;2024-03-23T15:43:29;22.50;54.50
36690;DHT22;22676;51.120;3.702;2024-03-23T15:46:00;22.50;54.50
36690;DHT22;22676;51.120;3.702;2024-03-23T15:48:26;22.50;54.40
36690;DHT22;22676;51.120;3.702;2024-03-23T15:50:56;22.40;53.90
36690;DHT22;22676;51.120;3.702;2024-03-23T15:53:22;22.50;52.80
36690;DHT22;22676;51.120;3.702;2024-03-23T15:55:54;22.50;52.40
36690;DHT22;22676;51.120;3.702;2024-03-23T15:58:20;22.40;52.00
36690;DHT22;22676;51.120;3.702;2024-03-23T16:00:53;22.50;52.40
36690;DHT22;22676;51.120;3.702;2024-03-23T16:03:19;22.40;53.40
36690;DHT22;22676;51.120;3.702;2024-03-23T16:06:03;22.40;53.80
36690;DHT22;22676;51.120;3.702;2024-03-23T16:08:29;22.40;54.20
36690;DHT22;22676;51.120;3.702;2024-03-23T16:10:54;22.40;54.00
36690;DHT22;22676;51.120;3.702;2024-03-23T16:13:21;22.40;53.60
36690;DHT22;22676;51.120;3.702;2024-03-23T16:15:56;22.40;53.50
36690;DHT22;22676;51.120;3.702;2024-03-23T16:18:22;22.40;53.40
36690;DHT22;22676;51.120;3.702;2024-03-23T16:20:51;22.40;53.80
36690;DHT22;22676;51.120;3.702;2024-03-23T16:23:17;22.40;54.10
36690;DHT22;22676;51.120;3.702;2024-03-23T16:25:49;22.30;54.50